createdAt,value
2017-09-20T00:00:43.071Z,10.90
2017-09-20T00:03:10.598Z,10.83
2017-09-20T00:05:38.128Z,10.70
2017-09-20T00:08:08.072Z,9.03
2017-09-20T00:10:35.716Z,10.23
2017-09-20T00:13:03.238Z,8.73
2017-09-20T00:15:30.779Z,8.60
2017-09-20T00:17:58.298Z,8.10
2017-09-20T00:20:35.868Z,7.27
2017-09-20T00:23:03.383Z,8.60
2017-09-20T00:25:31.661Z,7.70
2017-09-20T00:27:59.207Z,7.87
2017-09-20T00:30:27.490Z,7.17
2017-09-20T00:32:55.003Z,8.00
2017-09-20T00:35:22.548Z,7.70
2017-09-20T00:37:50.062Z,7.27
2017-09-20T00:40:18.353Z,7.17
2017-09-20T00:42:45.906Z,8.67
2017-09-20T00:45:14.186Z,7.10
2017-09-20T00:47:41.703Z,7.03
2017-09-20T00:50:09.240Z,8.60
2017-09-20T00:52:36.754Z,6.60
2017-09-20T00:55:05.279Z,7.03
2017-09-20T00:57:32.824Z,6.87
2017-09-20T01:00:00.342Z,7.83
2017-09-20T01:02:28.628Z,7.70
2017-09-20T01:04:56.939Z,6.57
2017-09-20T01:07:24.466Z,6.97
2017-09-20T01:09:52.767Z,7.50
2017-09-20T01:12:20.545Z,6.97
2017-09-20T01:14:48.414Z,8.30
2017-09-20T01:17:15.922Z,7.57
2017-09-20T01:19:44.235Z,7.63
2017-09-20T01:25:08.455Z,7.53
2017-09-20T01:27:36.740Z,7.17
2017-09-20T01:30:04.258Z,8.73
2017-09-20T01:32:31.806Z,7.80
2017-09-20T01:34:59.324Z,6.83
2017-09-20T01:37:26.813Z,8.17
2017-09-20T01:39:55.086Z,8.10
2017-09-20T01:42:23.331Z,7.93
2017-09-20T01:44:50.810Z,6.87
2017-09-20T01:47:18.311Z,7.00
2017-09-20T01:49:45.794Z,7.80
2017-09-20T01:52:13.278Z,7.67
2017-09-20T01:54:40.778Z,6.67
2017-09-20T01:57:11.005Z,7.77
2017-09-20T01:59:40.968Z,7.47
2017-09-20T02:02:09.342Z,7.70
2017-09-20T02:04:36.822Z,7.43
2017-09-20T02:07:05.065Z,8.57
2017-09-20T02:09:32.589Z,8.93
2017-09-20T02:12:00.071Z,8.10
2017-09-20T02:14:27.641Z,7.80
2017-09-20T02:16:55.118Z,7.50
2017-09-20T02:19:23.373Z,8.13
2017-09-20T02:21:50.899Z,8.20
2017-09-20T02:24:18.381Z,8.53
2017-09-20T02:26:45.861Z,8.50
2017-09-20T02:29:13.361Z,9.23
2017-09-20T02:31:40.841Z,8.87
2017-09-20T02:34:08.326Z,9.23
2017-09-20T02:36:35.823Z,8.30
2017-09-20T02:39:03.311Z,10.53
2017-09-20T02:41:30.825Z,9.43
2017-09-20T02:43:59.072Z,10.40
2017-09-20T02:46:26.591Z,9.73
2017-09-20T02:48:54.138Z,9.80
2017-09-20T02:51:21.655Z,9.43
2017-09-20T02:53:49.176Z,10.10
2017-09-20T02:56:16.788Z,10.80
2017-09-20T02:58:45.042Z,10.00
2017-09-20T03:01:12.526Z,10.13
2017-09-20T03:03:40.797Z,10.90
2017-09-20T03:06:08.279Z,9.80
2017-09-20T03:08:35.765Z,10.50
2017-09-20T03:11:03.261Z,9.63
2017-09-20T03:13:31.514Z,11.53
2017-09-20T03:15:59.781Z,9.50
2017-09-20T03:18:27.265Z,11.17
2017-09-20T03:20:54.746Z,10.83
2017-09-20T03:23:22.254Z,10.53
2017-09-20T03:25:49.742Z,10.83
2017-09-20T03:28:17.230Z,11.77
2017-09-20T03:30:44.734Z,12.20
2017-09-20T03:33:12.472Z,13.17
2017-09-20T03:35:39.977Z,10.83
2017-09-20T03:38:07.505Z,11.70
2017-09-20T03:40:34.998Z,13.67
2017-09-20T03:43:03.268Z,13.17
2017-09-20T03:45:30.750Z,12.57
2017-09-20T03:47:58.550Z,11.30
2017-09-20T03:50:26.870Z,10.87
2017-09-20T03:52:55.166Z,11.80
2017-09-20T03:55:23.422Z,10.50
2017-09-20T03:57:50.963Z,11.43
2017-09-20T04:00:18.487Z,12.97
2017-09-20T04:02:46.011Z,12.30
2017-09-20T04:05:13.513Z,11.83
2017-09-20T04:07:40.991Z,12.23
2017-09-20T04:10:08.527Z,13.90
2017-09-20T04:12:36.016Z,12.27
2017-09-20T04:15:03.500Z,12.57
2017-09-20T04:17:31.781Z,13.90
2017-09-20T04:20:00.029Z,12.60
2017-09-20T04:22:27.539Z,12.20
2017-09-20T04:24:55.025Z,12.50
2017-09-20T04:27:22.513Z,12.83
2017-09-20T04:29:50.826Z,14.30
2017-09-20T04:32:18.322Z,12.17
2017-09-20T04:34:45.815Z,12.10
2017-09-20T04:37:14.090Z,14.50
2017-09-20T04:39:41.569Z,14.20
2017-09-20T04:42:09.058Z,15.50
2017-09-20T04:44:36.565Z,14.23
2017-09-20T04:47:04.822Z,14.37
2017-09-20T04:49:32.311Z,14.30
2017-09-20T04:51:59.815Z,14.80
2017-09-20T04:54:27.328Z,15.00
2017-09-20T04:56:54.838Z,15.67
2017-09-20T04:59:22.326Z,14.83
2017-09-20T05:01:50.573Z,16.07
2017-09-20T05:04:18.077Z,17.60
2017-09-20T05:06:45.573Z,15.70
2017-09-20T05:09:13.318Z,15.47
2017-09-20T05:11:40.826Z,16.80
2017-09-20T05:14:08.310Z,15.33
2017-09-20T05:16:35.822Z,15.60
2017-09-20T05:19:03.344Z,15.70
2017-09-20T05:21:30.833Z,16.70
2017-09-20T05:23:58.345Z,17.70
2017-09-20T05:26:25.834Z,16.37
2017-09-20T05:28:53.322Z,16.03
2017-09-20T05:31:20.834Z,16.37
2017-09-20T05:33:48.334Z,17.73
2017-09-20T05:36:15.826Z,18.70
2017-09-20T05:38:43.344Z,17.23
2017-09-20T05:41:10.834Z,17.90
2017-09-20T05:43:38.321Z,17.70
2017-09-20T05:46:05.825Z,19.27
2017-09-20T05:48:33.317Z,18.77
2017-09-20T05:51:00.802Z,19.40
2017-09-20T05:53:28.302Z,18.73
2017-09-20T05:55:55.794Z,17.53
2017-09-20T05:58:23.306Z,16.93
2017-09-20T06:00:50.790Z,19.60
2017-09-20T06:03:18.274Z,19.20
2017-09-20T06:05:45.783Z,18.80
2017-09-20T06:08:13.274Z,19.00
2017-09-20T06:10:40.765Z,19.47
2017-09-20T06:13:08.269Z,21.40
2017-09-20T06:15:36.522Z,20.27
2017-09-20T06:18:04.009Z,22.87
2017-09-20T06:20:32.281Z,21.70
2017-09-20T06:23:00.540Z,19.97
2017-09-20T06:25:28.061Z,20.63
2017-09-20T06:27:55.547Z,20.17
2017-09-20T06:30:23.034Z,21.73
2017-09-20T06:32:51.302Z,20.33
2017-09-20T06:35:19.568Z,19.57
2017-09-20T06:37:47.078Z,19.40
2017-09-20T06:40:14.564Z,18.53
2017-09-20T06:42:42.065Z,17.00
2017-09-20T06:45:10.399Z,19.90
2017-09-20T06:47:37.883Z,17.60
2017-09-20T06:50:05.374Z,19.03
2017-09-20T06:52:32.873Z,16.03
2017-09-20T06:55:00.358Z,17.40
2017-09-20T06:57:28.629Z,16.80
2017-09-20T06:59:56.110Z,15.97
2017-09-20T07:02:23.594Z,16.43
2017-09-20T07:04:51.097Z,16.47
2017-09-20T07:07:18.577Z,17.73
2017-09-20T07:09:46.845Z,18.80
2017-09-20T07:12:15.097Z,20.70
2017-09-20T07:14:42.826Z,19.80
2017-09-20T07:17:10.328Z,20.73
2017-09-20T07:19:37.813Z,22.33
2017-09-20T07:22:05.310Z,19.40
2017-09-20T07:24:32.813Z,21.80
2017-09-20T07:27:01.072Z,21.50
2017-09-20T07:29:28.557Z,22.03
2017-09-20T07:31:56.834Z,23.40
2017-09-20T07:34:24.318Z,21.77
2017-09-20T07:36:51.822Z,21.77
2017-09-20T07:39:19.644Z,20.60
2017-09-20T07:41:47.131Z,21.70
2017-09-20T07:44:14.633Z,20.97
2017-09-20T07:46:42.901Z,22.00
2017-09-20T07:49:11.154Z,22.30
2017-09-20T07:51:38.666Z,24.07
2017-09-20T07:54:06.154Z,21.00
2017-09-20T07:56:33.642Z,22.03
2017-09-20T07:59:01.910Z,20.63
2017-09-20T08:01:30.166Z,21.20
2017-09-20T08:03:57.678Z,21.67
2017-09-20T08:06:25.166Z,21.03
2017-09-20T08:08:52.649Z,22.50
2017-09-20T08:11:20.162Z,20.40
2017-09-20T08:13:47.647Z,22.67
2017-09-20T08:16:15.145Z,20.23
2017-09-20T08:18:43.418Z,19.07
2017-09-20T08:21:11.666Z,18.13
2017-09-20T08:23:39.150Z,19.47
2017-09-20T08:26:07.426Z,20.07
2017-09-20T08:28:35.669Z,19.13
2017-09-20T08:31:03.157Z,17.23
2017-09-20T08:33:30.661Z,17.27
2017-09-20T08:35:58.421Z,17.03
2017-09-20T08:38:25.909Z,18.23
2017-09-20T08:40:53.409Z,19.63
2017-09-20T08:43:20.893Z,18.23
2017-09-20T08:45:48.378Z,19.30
2017-09-20T08:48:15.878Z,19.73
2017-09-20T08:50:43.367Z,18.80
2017-09-20T08:53:10.853Z,20.97
2017-09-20T08:55:38.346Z,20.17
2017-09-20T08:58:06.597Z,20.17
2017-09-20T09:00:34.211Z,18.97
2017-09-20T09:03:01.698Z,21.93
2017-09-20T09:05:29.182Z,18.37
2017-09-20T09:07:57.457Z,17.03
2017-09-20T09:10:25.718Z,16.57
2017-09-20T09:12:53.206Z,17.43
2017-09-20T09:15:20.719Z,17.60
2017-09-20T09:17:48.200Z,19.80
2017-09-20T09:20:15.683Z,16.50
2017-09-20T09:22:43.191Z,18.70
2017-09-20T09:25:10.670Z,18.67
2017-09-20T09:27:38.390Z,20.00
2017-09-20T09:30:06.153Z,18.90
2017-09-20T09:32:33.637Z,17.37
2017-09-20T09:35:01.134Z,16.37
2017-09-20T09:37:29.650Z,16.43
2017-09-20T09:39:57.138Z,13.83
2017-09-20T09:42:24.645Z,13.53
2017-09-20T09:44:52.129Z,15.13
2017-09-20T09:47:19.606Z,19.17
2017-09-20T09:49:47.879Z,17.57
2017-09-20T09:52:15.361Z,15.80
2017-09-20T09:54:42.842Z,13.87
2017-09-20T09:57:10.341Z,12.80
2017-09-20T09:59:37.827Z,16.47
2017-09-20T10:02:05.550Z,15.10
2017-09-20T10:04:33.048Z,16.80
2017-09-20T10:07:00.534Z,15.60
2017-09-20T10:09:28.798Z,15.53
2017-09-20T10:11:57.042Z,14.47
2017-09-20T10:14:24.559Z,15.03
2017-09-20T10:16:52.814Z,14.50
2017-09-20T10:19:21.059Z,12.63
2017-09-20T10:21:48.539Z,10.83
2017-09-20T10:24:17.018Z,11.13
2017-09-20T10:26:45.269Z,12.20
2017-09-20T10:29:13.007Z,12.63
2017-09-20T10:31:40.505Z,12.70
2017-09-20T10:34:08.221Z,11.93
2017-09-20T10:36:35.737Z,10.20
2017-09-20T10:39:03.989Z,10.83
2017-09-20T10:41:31.470Z,11.10
2017-09-20T10:43:59.734Z,10.60
2017-09-20T10:46:27.205Z,8.00
2017-09-20T10:48:55.454Z,9.00
2017-09-20T10:51:22.953Z,8.40
2017-09-20T10:53:50.474Z,11.33
2017-09-20T10:56:17.977Z,9.73
2017-09-20T10:58:45.466Z,11.73
2017-09-20T11:01:13.722Z,10.07
2017-09-20T11:03:41.221Z,9.60
2017-09-20T11:06:08.693Z,8.07
2017-09-20T11:08:36.937Z,9.03
2017-09-20T11:11:04.434Z,9.33
2017-09-20T11:13:32.677Z,8.43
2017-09-20T11:16:00.154Z,8.27
2017-09-20T11:18:28.421Z,7.87
2017-09-20T11:20:55.926Z,8.90
2017-09-20T11:23:23.406Z,9.10
2017-09-20T11:25:50.897Z,8.67
2017-09-20T11:28:19.514Z,8.30
2017-09-20T11:30:47.020Z,8.73
2017-09-20T11:33:14.711Z,9.37
2017-09-20T11:35:43.326Z,9.53
2017-09-20T11:38:10.825Z,9.90
2017-09-20T11:40:38.302Z,13.00
2017-09-20T11:43:05.801Z,9.30
2017-09-20T11:45:33.273Z,7.70
2017-09-20T11:48:00.753Z,8.40
2017-09-20T11:50:28.248Z,6.87
2017-09-20T11:52:56.573Z,6.43
2017-09-20T11:55:24.046Z,7.00
2017-09-20T11:57:51.550Z,6.97
2017-09-20T12:00:20.405Z,6.57
2017-09-20T12:02:47.878Z,6.50
2017-09-20T12:05:16.145Z,6.50
2017-09-20T12:07:43.617Z,6.27
2017-09-20T12:10:12.225Z,6.03
2017-09-20T12:12:39.723Z,6.20
2017-09-20T12:15:07.198Z,7.10
2017-09-20T12:17:34.676Z,6.97
2017-09-20T12:20:02.942Z,5.77
2017-09-20T12:22:31.186Z,7.33
2017-09-20T12:24:58.658Z,6.60
2017-09-20T12:27:26.149Z,7.00
2017-09-20T12:29:53.626Z,5.27
2017-09-20T12:32:21.125Z,5.17
2017-09-20T12:34:48.602Z,4.80
2017-09-20T12:37:16.850Z,4.97
2017-09-20T12:39:44.354Z,4.90
2017-09-20T12:42:11.829Z,5.90
2017-09-20T12:44:39.536Z,5.73
2017-09-20T12:47:07.051Z,6.73
2017-09-20T12:49:34.539Z,4.07
2017-09-20T12:52:02.017Z,4.70
2017-09-20T12:54:29.538Z,4.23
2017-09-20T12:56:57.018Z,5.00
2017-09-20T12:59:24.494Z,6.50
2017-09-20T13:01:52.764Z,5.17
2017-09-20T13:04:20.249Z,3.60
2017-09-20T13:06:47.733Z,4.07
2017-09-20T13:09:15.233Z,4.70
2017-09-20T13:11:42.706Z,4.57
2017-09-20T13:14:11.236Z,5.07
2017-09-20T13:16:38.998Z,4.13
2017-09-20T13:19:06.512Z,4.77
2017-09-20T13:21:33.974Z,4.80
2017-09-20T13:24:02.238Z,3.17
2017-09-20T13:26:29.717Z,3.30
2017-09-20T13:28:57.194Z,4.17
2017-09-20T13:31:24.699Z,4.30
2017-09-20T13:33:52.186Z,4.43
2017-09-20T13:36:20.426Z,3.83
2017-09-20T13:38:47.930Z,3.63
2017-09-20T13:41:15.410Z,4.00
2017-09-20T13:43:42.880Z,4.10
2017-09-20T13:46:11.146Z,4.03
2017-09-20T13:48:38.621Z,4.33
2017-09-20T13:51:06.103Z,5.60
2017-09-20T13:53:34.376Z,4.40
2017-09-20T13:56:01.853Z,4.80
2017-09-20T13:58:29.341Z,5.60
2017-09-20T14:00:56.847Z,7.57
2017-09-20T14:03:24.330Z,6.30
2017-09-20T14:05:51.821Z,4.87
2017-09-20T14:08:19.329Z,4.90
2017-09-20T14:10:47.858Z,4.90
2017-09-20T14:13:15.334Z,4.50
2017-09-20T14:15:42.839Z,5.47
2017-09-20T14:18:11.082Z,6.77
2017-09-20T14:20:38.561Z,4.30
2017-09-20T14:23:06.822Z,4.07
2017-09-20T14:25:34.293Z,4.70
2017-09-20T14:28:02.548Z,5.00
2017-09-20T14:30:30.062Z,5.97
2017-09-20T14:32:57.537Z,5.70
2017-09-20T14:35:25.019Z,8.23
2017-09-20T14:37:52.514Z,7.50
2017-09-20T14:40:20.002Z,8.03
2017-09-20T14:42:47.477Z,7.53
2017-09-20T14:45:14.973Z,6.57
2017-09-20T14:47:43.213Z,6.50
2017-09-20T14:50:10.697Z,7.27
2017-09-20T14:52:38.202Z,6.97
2017-09-20T14:55:05.677Z,7.00
2017-09-20T14:57:33.528Z,8.40
2017-09-20T15:00:01.034Z,8.30
2017-09-20T15:02:28.513Z,7.80
2017-09-20T15:04:55.993Z,6.40
2017-09-20T15:07:23.506Z,7.30
2017-09-20T15:09:51.763Z,5.20
2017-09-20T15:12:20.384Z,4.90
2017-09-20T15:14:48.659Z,5.00
2017-09-20T15:17:16.154Z,5.83
2017-09-20T15:19:43.630Z,5.87
2017-09-20T15:22:11.135Z,6.50
2017-09-20T15:24:38.621Z,6.03
2017-09-20T15:27:06.110Z,6.67
2017-09-20T15:29:33.611Z,6.90
2017-09-20T15:32:01.126Z,7.57
2017-09-20T15:34:28.863Z,7.63
2017-09-20T15:36:56.371Z,8.20
2017-09-20T15:39:23.870Z,8.70
2017-09-20T15:41:51.373Z,8.10
2017-09-20T15:44:19.661Z,6.83
2017-09-20T15:46:47.930Z,8.57
2017-09-20T15:49:15.438Z,7.57
2017-09-20T15:51:42.949Z,6.70
2017-09-20T15:54:11.222Z,7.73
2017-09-20T15:56:38.715Z,7.13
2017-09-20T15:59:06.222Z,6.43
2017-09-20T16:01:33.701Z,6.73
2017-09-20T16:04:01.282Z,7.03
2017-09-20T16:06:28.793Z,7.30
2017-09-20T16:08:56.290Z,7.30
2017-09-20T16:11:23.779Z,7.00
2017-09-20T16:13:51.334Z,7.87
2017-09-20T16:16:18.823Z,7.30
2017-09-20T16:18:46.307Z,6.97
2017-09-20T16:21:13.829Z,6.83
2017-09-20T16:23:41.349Z,6.90
2017-09-20T16:26:08.861Z,7.80
2017-09-20T16:28:36.387Z,6.23
2017-09-20T16:31:03.894Z,8.30
2017-09-20T16:33:31.386Z,6.30
2017-09-20T16:35:58.912Z,8.40
2017-09-20T16:38:27.469Z,7.93
2017-09-20T16:40:54.978Z,8.40
2017-09-20T16:43:22.486Z,6.40
2017-09-20T16:45:49.987Z,7.33
2017-09-20T16:48:17.507Z,6.70
2017-09-20T16:50:45.013Z,6.97
2017-09-20T16:53:12.510Z,8.10
2017-09-20T16:55:40.018Z,8.33
2017-09-20T16:58:07.514Z,8.10
2017-09-20T17:00:36.141Z,9.07
2017-09-20T17:03:03.653Z,7.87
2017-09-20T17:05:31.162Z,9.60
2017-09-20T17:07:58.666Z,9.73
2017-09-20T17:10:26.186Z,10.80
2017-09-20T17:12:53.707Z,7.40
2017-09-20T17:15:21.245Z,6.03
2017-09-20T17:17:48.746Z,7.23
2017-09-20T17:20:16.998Z,8.23
2017-09-20T17:22:44.536Z,8.07
2017-09-20T17:25:12.049Z,9.93
2017-09-20T17:27:40.305Z,10.13
2017-09-20T17:30:07.833Z,10.20
2017-09-20T17:32:35.360Z,11.87
2017-09-20T17:35:02.869Z,11.57
2017-09-20T17:37:30.390Z,12.87
2017-09-20T17:39:57.906Z,10.03
2017-09-20T17:42:26.178Z,10.20
2017-09-20T17:44:54.467Z,11.60
2017-09-20T17:47:21.978Z,13.80
2017-09-20T17:49:49.482Z,13.80
2017-09-20T17:52:17.782Z,13.07
2017-09-20T17:54:45.293Z,11.50
2017-09-20T17:57:12.808Z,13.87
2017-09-20T17:59:40.301Z,12.33
2017-09-20T18:02:08.149Z,11.93
2017-09-20T18:04:35.666Z,13.70
2017-09-20T18:07:03.190Z,12.13
2017-09-20T18:09:30.690Z,14.50
2017-09-20T18:11:58.210Z,13.40
2017-09-20T18:14:25.702Z,12.90
2017-09-20T18:16:53.227Z,14.07
2017-09-20T18:19:20.725Z,13.37
2017-09-20T18:21:48.213Z,13.37
2017-09-20T18:24:15.722Z,16.00
2017-09-20T18:26:43.991Z,14.40
2017-09-20T18:29:12.249Z,14.77
2017-09-20T18:31:39.766Z,15.40
2017-09-20T18:34:07.262Z,13.70
2017-09-20T18:36:34.753Z,15.90
2017-09-20T18:39:02.266Z,14.23
2017-09-20T18:41:29.771Z,15.37
2017-09-20T18:43:57.288Z,15.03
2017-09-20T18:46:24.787Z,16.13
2017-09-20T18:48:52.295Z,17.97
2017-09-20T18:51:19.824Z,12.70
2017-09-20T18:53:47.329Z,18.53
2017-09-20T18:56:14.826Z,14.23
2017-09-20T18:58:42.343Z,16.07
2017-09-20T19:01:09.851Z,19.00
2017-09-20T19:03:37.350Z,16.90
2017-09-20T19:06:04.863Z,17.23
2017-09-20T19:08:32.358Z,19.33
2017-09-20T19:10:59.864Z,20.83
2017-09-20T19:13:27.378Z,20.20
2017-09-20T19:15:54.874Z,20.83
2017-09-20T19:18:22.381Z,24.23
2017-09-20T19:20:49.883Z,25.80
2017-09-20T19:23:17.377Z,23.13
2017-09-20T19:25:44.893Z,21.17
2017-09-20T19:28:13.429Z,26.57
2017-09-20T19:30:40.937Z,21.17
2017-09-20T19:33:09.222Z,23.70
2017-09-20T19:35:37.488Z,21.03
2017-09-20T19:38:05.766Z,23.40
2017-09-20T19:40:34.034Z,21.10
2017-09-20T19:43:01.535Z,22.60
2017-09-20T19:45:29.053Z,18.20
2017-09-20T19:47:57.319Z,19.80
2017-09-20T19:50:24.807Z,18.10
2017-09-20T19:52:52.329Z,19.00
2017-09-20T19:55:19.834Z,20.50
2017-09-20T19:57:47.618Z,20.03
2017-09-20T20:00:15.134Z,19.87
2017-09-20T20:02:42.625Z,16.07
2017-09-20T20:05:10.118Z,17.00
2017-09-20T20:07:37.635Z,18.20
2017-09-20T20:10:05.130Z,17.00
2017-09-20T20:12:32.666Z,15.10
2017-09-20T20:15:00.158Z,14.07
2017-09-20T20:17:27.650Z,15.10
2017-09-20T20:19:55.166Z,16.87
2017-09-20T20:22:22.665Z,16.17
2017-09-20T20:24:50.166Z,15.70
2017-09-20T20:27:18.038Z,14.27
2017-09-20T20:29:46.342Z,15.03
2017-09-20T20:32:13.864Z,15.40
2017-09-20T20:34:41.357Z,14.80
2017-09-20T20:37:09.625Z,14.27
2017-09-20T20:39:37.150Z,13.07
2017-09-20T20:42:04.660Z,13.57
2017-09-20T20:44:32.930Z,13.43
2017-09-20T20:47:01.215Z,17.97
2017-09-20T20:49:29.487Z,17.67
2017-09-20T20:51:57.758Z,18.13
2017-09-20T20:54:26.052Z,18.93
2017-09-20T20:56:53.546Z,16.70
2017-09-20T20:59:21.043Z,19.00
2017-09-20T21:01:48.558Z,17.60
2017-09-20T21:04:16.424Z,16.67
2017-09-20T21:06:43.921Z,17.73
2017-09-20T21:09:11.432Z,18.70
2017-09-20T21:11:38.931Z,17.07
2017-09-20T21:14:06.454Z,17.10
2017-09-20T21:16:33.975Z,16.43
2017-09-20T21:19:02.247Z,19.87
2017-09-20T21:21:30.531Z,32.17
2017-09-20T21:23:58.792Z,25.23
2017-09-20T21:26:27.067Z,17.37
2017-09-20T21:28:55.341Z,18.80
2017-09-20T21:31:23.599Z,17.20
2017-09-20T21:33:51.094Z,15.57
2017-09-20T21:36:19.362Z,17.73
2017-09-20T21:38:46.864Z,16.00
2017-09-20T21:41:14.723Z,15.80
2017-09-20T21:43:42.226Z,18.27
2017-09-20T21:46:09.711Z,19.83
2017-09-20T21:48:37.205Z,19.33
2017-09-20T21:51:04.710Z,18.63
2017-09-20T21:53:32.198Z,18.70
2017-09-20T21:55:59.708Z,19.20
2017-09-20T21:58:27.205Z,36.70
2017-09-20T22:00:54.694Z,26.53
2017-09-20T22:03:22.971Z,30.03
2017-09-20T22:05:50.462Z,19.23
2017-09-20T22:08:17.991Z,19.20
2017-09-20T22:10:45.487Z,21.07
2017-09-20T22:13:13.751Z,17.90
2017-09-20T22:15:53.810Z,19.57
2017-09-20T22:18:33.862Z,18.30
2017-09-20T22:21:13.180Z,38.93
2017-09-20T22:23:52.390Z,18.90
2017-09-20T22:26:31.707Z,26.47
2017-09-20T22:28:59.198Z,30.00
2017-09-20T22:31:26.694Z,28.37
2017-09-20T22:33:54.205Z,24.10
2017-09-20T22:36:21.706Z,22.37
2017-09-20T22:38:49.958Z,24.10
2017-09-20T22:41:17.462Z,19.87
2017-09-20T22:43:44.962Z,21.83
2017-09-20T22:46:12.495Z,19.80
2017-09-20T22:48:39.994Z,22.17
2017-09-20T22:51:07.503Z,20.33
2017-09-20T22:53:35.010Z,20.47
2017-09-20T22:56:02.517Z,16.87
2017-09-20T22:58:30.023Z,16.90
2017-09-20T23:01:00.388Z,16.67
2017-09-20T23:03:27.878Z,15.77
2017-09-20T23:05:56.148Z,16.57
2017-09-20T23:08:23.634Z,16.87
2017-09-20T23:10:51.127Z,16.93
2017-09-20T23:13:18.640Z,16.23
2017-09-20T23:15:46.125Z,17.83
2017-09-20T23:18:14.381Z,15.13
2017-09-20T23:20:41.892Z,14.43
2017-09-20T23:23:09.381Z,16.10
2017-09-20T23:25:36.862Z,16.73
2017-09-20T23:28:05.142Z,16.90
2017-09-20T23:30:33.406Z,18.90
2017-09-20T23:33:00.889Z,15.93
2017-09-20T23:35:29.168Z,17.13
2017-09-20T23:37:57.437Z,18.43
2017-09-20T23:40:24.935Z,17.37
2017-09-20T23:42:52.441Z,15.80
2017-09-20T23:45:20.699Z,16.53
2017-09-20T23:47:48.215Z,17.37
2017-09-20T23:50:15.702Z,15.50
2017-09-20T23:52:43.959Z,14.40
2017-09-20T23:55:11.465Z,15.90
2017-09-20T23:57:40.002Z,16.80
